Airport View

Enter AWOS ICAO identifier for current METAR.

ex. KFNL

KHVS 080725Z AUTO VRB06G12KT 220V280 10SM CLR 19/14 A2980 RMK AO2

8 Apr 2020 07:29

Frequency: 118.225

Phone: 843-339-9625

Other Area AWOS: KUDG - KCQW - KBBP - KCDN

TAF KFLO 080520Z 0806/0906 25007KT P6SM FEW250 FM081800 26010KT P6SM SCT070 FM090200 28005KT P6SM FEW200